PWSweather.com
Personal Weather Stations
Station Observations
WXGLH1124
Southern Oaks, Indianapolis, IN 46217

Southern OaksIndianapolis, IN 46217

Lat: 39.65113, Lon: -86.16866

Elevation: 720

Station Type: Vantage Pro2

High Low Average
Temperature 44.7°F7.1°C 39.8°F4.3°C 42.5°F5.8°C
Dew Point 42.6°F5.9°C 35.4°F1.9°C 39.1°F3.9°C
Winds 8.0 mph 12.9 kmh Calm Calm 2.0 mph WNW3.2 kmh WNW
Wind Gusts 10.0 mph16.1 kmh -- 3.0 mph4.8 kmh
Humidity 93% 77% 88%
Pressure 30.06 in1017.9 mb 29.92 in1013.2 mb -
Precipitation 0.00 in0.0 mm - -
Hour Temp Dew Point Humidity Winds Wind Gusts Pressure Precip Precip Rate Daily Precip Total
12:00 AM 43.7°F6.5°C 41.5°F5.3°C 92% 2.0 mph SW3.2 kmh SW 3.0 mph4.8 kmh 30.00 in1015.9 mb 0.02 in0.5 mm 0.00 in0.0 mm 0.02 in0.5 mm
12:05 AM 43.8°F6.6°C 41.6°F5.3°C 92% 4.0 mph SW6.4 kmh SW 4.0 mph6.4 kmh 30.00 in1015.9 mb 0.01 in0.3 mm 0.00 in0.0 mm 0.02 in0.5 mm
12:09 AM 43.8°F6.6°C 41.6°F5.3°C 92% 5.0 mph SW8.0 kmh SW 6.0 mph9.7 kmh 30.00 in1015.9 mb 0.01 in0.3 mm 0.00 in0.0 mm 0.02 in0.5 mm
12:15 AM 43.9°F6.6°C 41.7°F5.4°C 92% 5.0 mph SW8.0 kmh SW 6.0 mph9.7 kmh 30.00 in1015.9 mb 0.01 in0.3 mm 0.00 in0.0 mm 0.02 in0.5 mm
12:20 AM 43.9°F6.6°C 41.7°F5.4°C 92% 5.0 mph SW8.0 kmh SW 6.0 mph9.7 kmh 30.00 in1015.9 mb 0.01 in0.3 mm 0.00 in0.0 mm 0.02 in0.5 mm
12:25 AM 43.9°F6.6°C 41.7°F5.4°C 92% 5.0 mph WSW8.0 kmh WSW 5.0 mph8.0 kmh 30.00 in1015.9 mb 0.01 in0.3 mm 0.00 in0.0 mm 0.02 in0.5 mm
12:30 AM 44.0°F6.7°C 41.8°F5.4°C 92% 2.0 mph SW3.2 kmh SW 3.0 mph4.8 kmh 30.00 in1015.9 mb 0.01 in0.3 mm 0.00 in0.0 mm 0.02 in0.5 mm
12:35 AM 44.0°F6.7°C 41.8°F5.4°C 92% 3.0 mph SW4.8 kmh SW 7.0 mph11.3 kmh 29.99 in1015.6 mb 0.01 in0.3 mm 0.00 in0.0 mm 0.02 in0.5 mm
12:40 AM 44.0°F6.7°C 41.8°F5.4°C 92% 6.0 mph SW9.7 kmh SW 6.0 mph9.7 kmh 29.99 in1015.6 mb 0.01 in0.3 mm 0.00 in0.0 mm 0.02 in0.5 mm
12:45 AM 44.1°F6.7°C 41.9°F5.5°C 92% 2.0 mph SW3.2 kmh SW 3.0 mph4.8 kmh 29.99 in1015.6 mb 0.01 in0.3 mm 0.00 in0.0 mm 0.02 in0.5 mm
12:50 AM 44.1°F6.7°C 41.9°F5.5°C 92% 2.0 mph SW3.2 kmh SW 3.0 mph4.8 kmh 29.99 in1015.6 mb 0.00 in0.0 mm 0.00 in0.0 mm 0.02 in0.5 mm
12:54 AM 44.1°F6.7°C 41.9°F5.5°C 92% 1.0 mph SW1.6 kmh SW 2.0 mph3.2 kmh 29.99 in1015.6 mb 0.00 in0.0 mm 0.00 in0.0 mm 0.02 in0.5 mm
12:59 AM 44.1°F6.7°C 41.9°F5.5°C 92% 3.0 mph WSW4.8 kmh WSW 3.0 mph4.8 kmh 29.99 in1015.6 mb 0.01 in0.3 mm 0.12 in3.0 mm 0.03 in0.8 mm
01:04 AM 44.2°F6.8°C 42.0°F5.6°C 92% 1.0 mph WSW1.6 kmh WSW 2.0 mph3.2 kmh 29.99 in1015.6 mb 0.01 in0.3 mm 0.00 in0.0 mm 0.03 in0.8 mm
01:10 AM 44.2°F6.8°C 42.0°F5.6°C 92% 3.0 mph SW4.8 kmh SW 4.0 mph6.4 kmh 29.98 in1015.2 mb 0.01 in0.3 mm 0.00 in0.0 mm 0.03 in0.8 mm
01:15 AM 44.2°F6.8°C 42.0°F5.6°C 92% 2.0 mph SW3.2 kmh SW 2.0 mph3.2 kmh 29.98 in1015.2 mb 0.01 in0.3 mm 0.00 in0.0 mm 0.03 in0.8 mm
01:20 AM 44.2°F6.8°C 42.0°F5.6°C 92% 2.0 mph SW3.2 kmh SW 3.0 mph4.8 kmh 29.98 in1015.2 mb 0.01 in0.3 mm 0.00 in0.0 mm 0.03 in0.8 mm
01:25 AM 44.2°F6.8°C 42.0°F5.6°C 92% Calm Calm 1.0 mph1.6 kmh 29.98 in1015.2 mb 0.01 in0.3 mm 0.00 in0.0 mm 0.03 in0.8 mm
01:30 AM 44.2°F6.8°C 42.0°F5.6°C 92% 2.0 mph SW3.2 kmh SW 2.0 mph3.2 kmh 29.98 in1015.2 mb 0.01 in0.3 mm 0.00 in0.0 mm 0.03 in0.8 mm
01:34 AM 44.3°F6.8°C 42.1°F5.6°C 92% 2.0 mph SW3.2 kmh SW 2.0 mph3.2 kmh 29.98 in1015.2 mb 0.01 in0.3 mm 0.00 in0.0 mm 0.03 in0.8 mm
01:40 AM 44.3°F6.8°C 42.1°F5.6°C 92% Calm Calm -- 29.98 in1015.2 mb 0.01 in0.3 mm 0.00 in0.0 mm 0.03 in0.8 mm
01:45 AM 44.3°F6.8°C 42.1°F5.6°C 92% 2.0 mph SSW3.2 kmh SSW 2.0 mph3.2 kmh 29.97 in1014.9 mb 0.01 in0.3 mm 0.00 in0.0 mm 0.03 in0.8 mm
01:50 AM 44.3°F6.8°C 42.1°F5.6°C 92% 2.0 mph SSW3.2 kmh SSW 2.0 mph3.2 kmh 29.97 in1014.9 mb 0.02 in0.5 mm 0.12 in3.0 mm 0.04 in1.0 mm
01:55 AM 44.3°F6.8°C 42.1°F5.6°C 92% 1.0 mph WSW1.6 kmh WSW 1.0 mph1.6 kmh 29.97 in1014.9 mb 0.02 in0.5 mm 0.00 in0.0 mm 0.04 in1.0 mm
01:59 AM 44.4°F6.9°C 42.2°F5.7°C 92% 2.0 mph S3.2 kmh S 2.0 mph3.2 kmh 29.97 in1014.9 mb 0.01 in0.3 mm 0.00 in0.0 mm 0.04 in1.0 mm
02:05 AM 44.3°F6.8°C 42.1°F5.6°C 92% Calm Calm -- 29.97 in1014.9 mb 0.01 in0.3 mm 0.00 in0.0 mm 0.04 in1.0 mm
02:10 AM 44.4°F6.9°C 42.2°F5.7°C 92% 1.0 mph SW1.6 kmh SW 1.0 mph1.6 kmh 29.97 in1014.9 mb 0.01 in0.3 mm 0.00 in0.0 mm 0.04 in1.0 mm
02:15 AM 44.4°F6.9°C 42.2°F5.7°C 92% 2.0 mph SW3.2 kmh SW 3.0 mph4.8 kmh 29.97 in1014.9 mb 0.01 in0.3 mm 0.00 in0.0 mm 0.04 in1.0 mm
02:20 AM 44.4°F6.9°C 42.5°F5.8°C 93% 2.0 mph SW3.2 kmh SW 3.0 mph4.8 kmh 29.97 in1014.9 mb 0.01 in0.3 mm 0.00 in0.0 mm 0.04 in1.0 mm
02:24 AM 44.4°F6.9°C 42.2°F5.7°C 92% 3.0 mph SW4.8 kmh SW 3.0 mph4.8 kmh 29.97 in1014.9 mb 0.01 in0.3 mm 0.00 in0.0 mm 0.04 in1.0 mm
02:30 AM 44.4°F6.9°C 42.5°F5.8°C 93% 2.0 mph SW3.2 kmh SW 3.0 mph4.8 kmh 29.97 in1014.9 mb 0.01 in0.3 mm 0.00 in0.0 mm 0.04 in1.0 mm
02:35 AM 44.4°F6.9°C 42.5°F5.8°C 93% 1.0 mph S1.6 kmh S 2.0 mph3.2 kmh 29.97 in1014.9 mb 0.01 in0.3 mm 0.00 in0.0 mm 0.04 in1.0 mm
02:40 AM 44.4°F6.9°C 42.5°F5.8°C 93% 4.0 mph SW6.4 kmh SW 4.0 mph6.4 kmh 29.97 in1014.9 mb 0.01 in0.3 mm 0.00 in0.0 mm 0.04 in1.0 mm
02:45 AM 44.4°F6.9°C 42.5°F5.8°C 93% 3.0 mph SE4.8 kmh SE 3.0 mph4.8 kmh 29.97 in1014.9 mb 0.01 in0.3 mm 0.00 in0.0 mm 0.04 in1.0 mm
02:50 AM 44.4°F6.9°C 42.5°F5.8°C 93% 2.0 mph SW3.2 kmh SW 2.0 mph3.2 kmh 29.97 in1014.9 mb 0.00 in0.0 mm 0.00 in0.0 mm 0.04 in1.0 mm
02:55 AM 44.4°F6.9°C 42.5°F5.8°C 93% 2.0 mph SW3.2 kmh SW 4.0 mph6.4 kmh 29.97 in1014.9 mb 0.00 in0.0 mm 0.00 in0.0 mm 0.04 in1.0 mm
02:59 AM 44.5°F6.9°C 42.3°F5.7°C 92% 1.0 mph SW1.6 kmh SW 3.0 mph4.8 kmh 29.96 in1014.6 mb 0.00 in0.0 mm 0.00 in0.0 mm 0.04 in1.0 mm
03:05 AM 44.4°F6.9°C 42.2°F5.7°C 92% 5.0 mph SW8.0 kmh SW 5.0 mph8.0 kmh 29.97 in1014.9 mb 0.01 in0.3 mm 0.01 in0.3 mm 0.05 in1.3 mm
03:10 AM 44.5°F6.9°C 42.3°F5.7°C 92% Calm Calm 1.0 mph1.6 kmh 29.96 in1014.6 mb 0.01 in0.3 mm 0.00 in0.0 mm 0.05 in1.3 mm
03:14 AM 44.5°F6.9°C 42.6°F5.9°C 93% 4.0 mph SW6.4 kmh SW 4.0 mph6.4 kmh 29.96 in1014.6 mb 0.01 in0.3 mm 0.00 in0.0 mm 0.05 in1.3 mm
03:20 AM 44.4°F6.9°C 42.2°F5.7°C 92% 2.0 mph SW3.2 kmh SW 2.0 mph3.2 kmh 29.96 in1014.6 mb 0.01 in0.3 mm 0.00 in0.0 mm 0.05 in1.3 mm
03:25 AM 44.4°F6.9°C 42.5°F5.8°C 93% 1.0 mph SW1.6 kmh SW 2.0 mph3.2 kmh 29.96 in1014.6 mb 0.01 in0.3 mm 0.00 in0.0 mm 0.05 in1.3 mm
03:30 AM 44.4°F6.9°C 42.2°F5.7°C 92% 1.0 mph SW1.6 kmh SW 1.0 mph1.6 kmh 29.96 in1014.6 mb 0.01 in0.3 mm 0.00 in0.0 mm 0.05 in1.3 mm
03:35 AM 44.3°F6.8°C 42.1°F5.6°C 92% Calm Calm -- 29.96 in1014.6 mb 0.01 in0.3 mm 0.00 in0.0 mm 0.05 in1.3 mm
03:40 AM 44.3°F6.8°C 42.1°F5.6°C 92% 2.0 mph SW3.2 kmh SW 4.0 mph6.4 kmh 29.96 in1014.6 mb 0.01 in0.3 mm 0.00 in0.0 mm 0.05 in1.3 mm
03:44 AM 44.4°F6.9°C 42.5°F5.8°C 93% 3.0 mph SW4.8 kmh SW 4.0 mph6.4 kmh 29.96 in1014.6 mb 0.01 in0.3 mm 0.00 in0.0 mm 0.05 in1.3 mm
03:50 AM 44.4°F6.9°C 42.5°F5.8°C 93% 5.0 mph SW8.0 kmh SW 5.0 mph8.0 kmh 29.95 in1014.2 mb 0.01 in0.3 mm 0.00 in0.0 mm 0.05 in1.3 mm
03:55 AM 44.4°F6.9°C 42.5°F5.8°C 93% 4.0 mph SW6.4 kmh SW 4.0 mph6.4 kmh 29.95 in1014.2 mb 0.01 in0.3 mm 0.00 in0.0 mm 0.05 in1.3 mm
04:00 AM 44.4°F6.9°C 42.2°F5.7°C 92% 2.0 mph SW3.2 kmh SW 3.0 mph4.8 kmh 29.95 in1014.2 mb 0.01 in0.3 mm 0.00 in0.0 mm 0.05 in1.3 mm
04:05 AM 44.4°F6.9°C 42.2°F5.7°C 92% 4.0 mph WSW6.4 kmh WSW 4.0 mph6.4 kmh 29.95 in1014.2 mb 0.01 in0.3 mm 0.00 in0.0 mm 0.05 in1.3 mm
04:10 AM 44.4°F6.9°C 42.2°F5.7°C 92% 2.0 mph SW3.2 kmh SW 4.0 mph6.4 kmh 29.95 in1014.2 mb 0.01 in0.3 mm 0.00 in0.0 mm 0.05 in1.3 mm
04:15 AM 44.6°F7.0°C 42.4°F5.8°C 92% 5.0 mph SW8.0 kmh SW 6.0 mph9.7 kmh 29.95 in1014.2 mb 0.01 in0.3 mm 0.00 in0.0 mm 0.05 in1.3 mm
04:20 AM 44.6°F7.0°C 42.4°F5.8°C 92% 5.0 mph SW8.0 kmh SW 5.0 mph8.0 kmh 29.94 in1013.9 mb 0.01 in0.3 mm 0.00 in0.0 mm 0.05 in1.3 mm
04:25 AM 44.6°F7.0°C 42.4°F5.8°C 92% 3.0 mph SW4.8 kmh SW 3.0 mph4.8 kmh 29.94 in1013.9 mb 0.01 in0.3 mm 0.00 in0.0 mm 0.05 in1.3 mm
04:30 AM 44.6°F7.0°C 42.4°F5.8°C 92% 3.0 mph SW4.8 kmh SW 4.0 mph6.4 kmh 29.94 in1013.9 mb 0.01 in0.3 mm 0.00 in0.0 mm 0.05 in1.3 mm
04:35 AM 44.7°F7.1°C 42.5°F5.8°C 92% 1.0 mph WSW1.6 kmh WSW 1.0 mph1.6 kmh 29.93 in1013.5 mb 0.01 in0.3 mm 0.00 in0.0 mm 0.05 in1.3 mm
04:40 AM 44.7°F7.1°C 42.5°F5.8°C 92% 1.0 mph WSW1.6 kmh WSW 2.0 mph3.2 kmh 29.93 in1013.5 mb 0.01 in0.3 mm 0.00 in0.0 mm 0.05 in1.3 mm
04:45 AM 44.5°F6.9°C 42.3°F5.7°C 92% 2.0 mph SW3.2 kmh SW 3.0 mph4.8 kmh 29.93 in1013.5 mb 0.01 in0.3 mm 0.00 in0.0 mm 0.05 in1.3 mm
04:50 AM 44.4°F6.9°C 42.2°F5.7°C 92% 3.0 mph WSW4.8 kmh WSW 5.0 mph8.0 kmh 29.93 in1013.5 mb 0.01 in0.3 mm 0.00 in0.0 mm 0.05 in1.3 mm
04:55 AM 44.3°F6.8°C 42.1°F5.6°C 92% 2.0 mph SW3.2 kmh SW 3.0 mph4.8 kmh 29.93 in1013.5 mb 0.01 in0.3 mm 0.00 in0.0 mm 0.05 in1.3 mm
05:00 AM 44.5°F6.9°C 42.3°F5.7°C 92% 2.0 mph WSW3.2 kmh WSW 3.0 mph4.8 kmh 29.93 in1013.5 mb 0.01 in0.3 mm 0.00 in0.0 mm 0.05 in1.3 mm
05:05 AM 44.5°F6.9°C 42.3°F5.7°C 92% 3.0 mph SW4.8 kmh SW 4.0 mph6.4 kmh 29.92 in1013.2 mb 0.01 in0.3 mm 0.00 in0.0 mm 0.05 in1.3 mm
05:09 AM 44.3°F6.8°C 42.1°F5.6°C 92% 4.0 mph SW6.4 kmh SW 4.0 mph6.4 kmh 29.92 in1013.2 mb 0.00 in0.0 mm 0.00 in0.0 mm 0.05 in1.3 mm
05:15 AM 44.2°F6.8°C 42.0°F5.6°C 92% Calm Calm 2.0 mph3.2 kmh 29.92 in1013.2 mb 0.00 in0.0 mm 0.00 in0.0 mm 0.05 in1.3 mm
05:20 AM 44.2°F6.8°C 42.0°F5.6°C 92% 2.0 mph SW3.2 kmh SW 2.0 mph3.2 kmh 29.92 in1013.2 mb 0.00 in0.0 mm 0.00 in0.0 mm 0.05 in1.3 mm
05:25 AM 44.2°F6.8°C 42.0°F5.6°C 92% 3.0 mph SW4.8 kmh SW 3.0 mph4.8 kmh 29.92 in1013.2 mb 0.00 in0.0 mm 0.00 in0.0 mm 0.05 in1.3 mm
05:30 AM 44.1°F6.7°C 41.9°F5.5°C 92% 3.0 mph SW4.8 kmh SW 3.0 mph4.8 kmh 29.92 in1013.2 mb 0.00 in0.0 mm 0.00 in0.0 mm 0.05 in1.3 mm
05:35 AM 44.1°F6.7°C 41.9°F5.5°C 92% Calm Calm -- 29.92 in1013.2 mb 0.01 in0.3 mm 0.12 in3.0 mm 0.06 in1.5 mm
05:39 AM 44.0°F6.7°C 41.8°F5.4°C 92% 1.0 mph W1.6 kmh W 1.0 mph1.6 kmh 29.92 in1013.2 mb 0.01 in0.3 mm 0.00 in0.0 mm 0.06 in1.5 mm
05:45 AM 43.9°F6.6°C 41.7°F5.4°C 92% Calm Calm -- 29.92 in1013.2 mb 0.01 in0.3 mm 0.00 in0.0 mm 0.06 in1.5 mm
05:49 AM 43.9°F6.6°C 41.7°F5.4°C 92% 4.0 mph WSW6.4 kmh WSW 4.0 mph6.4 kmh 29.92 in1013.2 mb 0.01 in0.3 mm 0.00 in0.0 mm 0.06 in1.5 mm
05:55 AM 43.8°F6.6°C 41.6°F5.3°C 92% Calm Calm -- 29.92 in1013.2 mb 0.01 in0.3 mm 0.00 in0.0 mm 0.06 in1.5 mm
06:00 AM 43.7°F6.5°C 41.5°F5.3°C 92% Calm Calm -- 29.92 in1013.2 mb 0.01 in0.3 mm 0.00 in0.0 mm 0.06 in1.5 mm
06:05 AM 43.7°F6.5°C 41.5°F5.3°C 92% Calm Calm 1.0 mph1.6 kmh 29.92 in1013.2 mb 0.01 in0.3 mm 0.00 in0.0 mm 0.06 in1.5 mm
06:09 AM 43.6°F6.4°C 41.7°F5.4°C 93% 1.0 mph WSW1.6 kmh WSW 1.0 mph1.6 kmh 29.92 in1013.2 mb 0.01 in0.3 mm 0.00 in0.0 mm 0.06 in1.5 mm
06:15 AM 43.6°F6.4°C 41.4°F5.2°C 92% Calm Calm -- 29.92 in1013.2 mb 0.01 in0.3 mm 0.00 in0.0 mm 0.06 in1.5 mm
06:20 AM 43.6°F6.4°C 41.4°F5.2°C 92% 1.0 mph SW1.6 kmh SW 1.0 mph1.6 kmh 29.92 in1013.2 mb 0.01 in0.3 mm 0.00 in0.0 mm 0.06 in1.5 mm
06:25 AM 43.6°F6.4°C 41.4°F5.2°C 92% 1.0 mph SW1.6 kmh SW 2.0 mph3.2 kmh 29.92 in1013.2 mb 0.01 in0.3 mm 0.00 in0.0 mm 0.06 in1.5 mm
06:29 AM 43.5°F6.4°C 41.3°F5.2°C 92% Calm Calm -- 29.92 in1013.2 mb 0.01 in0.3 mm 0.00 in0.0 mm 0.06 in1.5 mm
06:35 AM 43.5°F6.4°C 41.3°F5.2°C 92% 1.0 mph SW1.6 kmh SW 1.0 mph1.6 kmh 29.92 in1013.2 mb 0.00 in0.0 mm 0.00 in0.0 mm 0.06 in1.5 mm
06:40 AM 43.5°F6.4°C 41.3°F5.2°C 92% Calm Calm -- 29.92 in1013.2 mb 0.00 in0.0 mm 0.00 in0.0 mm 0.06 in1.5 mm
06:45 AM 43.5°F6.4°C 41.3°F5.2°C 92% Calm Calm 1.0 mph1.6 kmh 29.92 in1013.2 mb 0.01 in0.3 mm 0.12 in3.0 mm 0.07 in1.8 mm
06:50 AM 43.5°F6.4°C 41.3°F5.2°C 92% 3.0 mph WSW4.8 kmh WSW 3.0 mph4.8 kmh 29.92 in1013.2 mb 0.01 in0.3 mm 0.00 in0.0 mm 0.07 in1.8 mm
06:55 AM 43.4°F6.3°C 41.2°F5.1°C 92% 2.0 mph SW3.2 kmh SW 2.0 mph3.2 kmh 29.92 in1013.2 mb 0.01 in0.3 mm 0.00 in0.0 mm 0.07 in1.8 mm
06:59 AM 43.4°F6.3°C 41.2°F5.1°C 92% Calm Calm -- 29.92 in1013.2 mb 0.01 in0.3 mm 0.00 in0.0 mm 0.07 in1.8 mm
07:05 AM 43.4°F6.3°C 41.5°F5.3°C 93% Calm Calm -- 29.92 in1013.2 mb 0.01 in0.3 mm 0.00 in0.0 mm 0.07 in1.8 mm
07:10 AM 43.4°F6.3°C 41.5°F5.3°C 93% Calm Calm -- 29.92 in1013.2 mb 0.01 in0.3 mm 0.00 in0.0 mm 0.07 in1.8 mm
07:15 AM 43.3°F6.3°C 41.4°F5.2°C 93% 1.0 mph SW1.6 kmh SW 1.0 mph1.6 kmh 29.92 in1013.2 mb 0.01 in0.3 mm 0.00 in0.0 mm 0.07 in1.8 mm
07:20 AM 43.3°F6.3°C 41.4°F5.2°C 93% Calm Calm -- 29.92 in1013.2 mb 0.01 in0.3 mm 0.00 in0.0 mm 0.07 in1.8 mm
07:25 AM 43.3°F6.3°C 41.4°F5.2°C 93% Calm Calm -- 29.92 in1013.2 mb 0.01 in0.3 mm 0.00 in0.0 mm 0.07 in1.8 mm
07:30 AM 43.2°F6.2°C 41.3°F5.2°C 93% Calm Calm -- 29.92 in1013.2 mb 0.01 in0.3 mm 0.00 in0.0 mm 0.07 in1.8 mm
07:34 AM 43.2°F6.2°C 41.3°F5.2°C 93% Calm Calm -- 29.92 in1013.2 mb 0.01 in0.3 mm 0.00 in0.0 mm 0.07 in1.8 mm
07:39 AM 43.1°F6.2°C 41.2°F5.1°C 93% Calm Calm -- 29.92 in1013.2 mb 0.01 in0.3 mm 0.00 in0.0 mm 0.07 in1.8 mm
07:44 AM 43.1°F6.2°C 41.2°F5.1°C 93% Calm Calm -- 29.92 in1013.2 mb 0.00 in0.0 mm 0.00 in0.0 mm 0.07 in1.8 mm
07:49 AM 43.1°F6.2°C 41.2°F5.1°C 93% Calm Calm -- 29.92 in1013.2 mb 0.00 in0.0 mm 0.00 in0.0 mm 0.07 in1.8 mm
07:54 AM 43.0°F6.1°C 41.1°F5.1°C 93% Calm Calm -- 29.92 in1013.2 mb 0.00 in0.0 mm 0.00 in0.0 mm 0.07 in1.8 mm
08:00 AM 43.0°F6.1°C 41.1°F5.1°C 93% Calm Calm -- 29.92 in1013.2 mb 0.00 in0.0 mm 0.00 in0.0 mm 0.07 in1.8 mm
08:05 AM 43.0°F6.1°C 41.1°F5.1°C 93% Calm Calm -- 29.92 in1013.2 mb 0.00 in0.0 mm 0.00 in0.0 mm 0.07 in1.8 mm
08:10 AM 42.9°F6.1°C 41.0°F5.0°C 93% Calm Calm -- 29.92 in1013.2 mb 0.00 in0.0 mm 0.00 in0.0 mm 0.07 in1.8 mm
08:15 AM 42.9°F6.1°C 41.0°F5.0°C 93% Calm Calm -- 29.92 in1013.2 mb 0.00 in0.0 mm 0.00 in0.0 mm 0.07 in1.8 mm
08:20 AM 42.9°F6.1°C 41.0°F5.0°C 93% Calm Calm -- 29.92 in1013.2 mb 0.00 in0.0 mm 0.00 in0.0 mm 0.07 in1.8 mm
08:25 AM 42.8°F6.0°C 40.9°F4.9°C 93% Calm Calm -- 29.93 in1013.5 mb 0.00 in0.0 mm 0.00 in0.0 mm 0.07 in1.8 mm
08:30 AM 42.9°F6.1°C 41.0°F5.0°C 93% Calm Calm -- 29.93 in1013.5 mb 0.00 in0.0 mm 0.00 in0.0 mm 0.07 in1.8 mm
08:35 AM 42.9°F6.1°C 41.0°F5.0°C 93% Calm Calm -- 29.93 in1013.5 mb 0.01 in0.3 mm 0.12 in3.0 mm 0.08 in2.0 mm
08:40 AM 42.9°F6.1°C 41.0°F5.0°C 93% Calm Calm -- 29.93 in1013.5 mb 0.01 in0.3 mm 0.00 in0.0 mm 0.08 in2.0 mm
08:45 AM 42.9°F6.1°C 41.0°F5.0°C 93% Calm Calm -- 29.93 in1013.5 mb 0.01 in0.3 mm 0.00 in0.0 mm 0.08 in2.0 mm
08:50 AM 42.9°F6.1°C 41.0°F5.0°C 93% 2.0 mph WNW3.2 kmh WNW 3.0 mph4.8 kmh 29.93 in1013.5 mb 0.01 in0.3 mm 0.00 in0.0 mm 0.08 in2.0 mm
08:55 AM 42.7°F5.9°C 40.8°F4.9°C 93% 3.0 mph NW4.8 kmh NW 4.0 mph6.4 kmh 29.93 in1013.5 mb 0.01 in0.3 mm 0.00 in0.0 mm 0.08 in2.0 mm
08:59 AM 42.5°F5.8°C 40.6°F4.8°C 93% 4.0 mph NW6.4 kmh NW 4.0 mph6.4 kmh 29.93 in1013.5 mb 0.01 in0.3 mm 0.00 in0.0 mm 0.08 in2.0 mm
09:05 AM 42.2°F5.7°C 40.1°F4.5°C 92% 2.0 mph NW3.2 kmh NW 2.0 mph3.2 kmh 29.93 in1013.5 mb 0.01 in0.3 mm 0.00 in0.0 mm 0.08 in2.0 mm
09:10 AM 42.0°F5.6°C 40.1°F4.5°C 93% 4.0 mph NW6.4 kmh NW 4.0 mph6.4 kmh 29.93 in1013.5 mb 0.01 in0.3 mm 0.00 in0.0 mm 0.08 in2.0 mm
09:15 AM 41.8°F5.4°C 39.7°F4.3°C 92% 3.0 mph NW4.8 kmh NW 3.0 mph4.8 kmh 29.94 in1013.9 mb 0.01 in0.3 mm 0.00 in0.0 mm 0.08 in2.0 mm
09:20 AM 41.7°F5.4°C 39.6°F4.2°C 92% 4.0 mph NW6.4 kmh NW 4.0 mph6.4 kmh 29.94 in1013.9 mb 0.01 in0.3 mm 0.00 in0.0 mm 0.08 in2.0 mm
09:40 AM 41.5°F5.3°C 39.4°F4.1°C 92% Calm Calm 3.0 mph4.8 kmh 29.94 in1013.9 mb 0.00 in0.0 mm 0.00 in0.0 mm 0.08 in2.0 mm
09:45 AM 41.5°F5.3°C 39.4°F4.1°C 92% 5.0 mph NNW8.0 kmh NNW 6.0 mph9.7 kmh 29.94 in1013.9 mb 0.00 in0.0 mm 0.00 in0.0 mm 0.08 in2.0 mm
09:49 AM 41.5°F5.3°C 39.4°F4.1°C 92% Calm Calm -- 29.95 in1014.2 mb 0.00 in0.0 mm 0.00 in0.0 mm 0.08 in2.0 mm
09:55 AM 41.4°F5.2°C 39.3°F4.1°C 92% 4.0 mph NW6.4 kmh NW 5.0 mph8.0 kmh 29.95 in1014.2 mb 0.00 in0.0 mm 0.00 in0.0 mm 0.08 in2.0 mm
10:00 AM 41.2°F5.1°C 38.8°F3.8°C 91% 3.0 mph NNW4.8 kmh NNW 3.0 mph4.8 kmh 29.95 in1014.2 mb 0.01 in0.3 mm 0.01 in0.3 mm 0.09 in2.3 mm
10:05 AM 40.9°F4.9°C 38.5°F3.6°C 91% 5.0 mph NW8.0 kmh NW 5.0 mph8.0 kmh 29.95 in1014.2 mb 0.01 in0.3 mm 0.00 in0.0 mm 0.09 in2.3 mm
10:10 AM 40.6°F4.8°C 37.9°F3.3°C 90% 4.0 mph NW6.4 kmh NW 5.0 mph8.0 kmh 29.95 in1014.2 mb 0.01 in0.3 mm 0.00 in0.0 mm 0.09 in2.3 mm
10:15 AM 40.4°F4.7°C 37.7°F3.2°C 90% 5.0 mph NW8.0 kmh NW 6.0 mph9.7 kmh 29.96 in1014.6 mb 0.01 in0.3 mm 0.00 in0.0 mm 0.09 in2.3 mm
10:20 AM 40.0°F4.4°C 37.3°F2.9°C 90% 4.0 mph N6.4 kmh N 4.0 mph6.4 kmh 29.96 in1014.6 mb 0.01 in0.3 mm 0.00 in0.0 mm 0.09 in2.3 mm
10:25 AM 39.9°F4.4°C 36.9°F2.7°C 89% 2.0 mph N3.2 kmh N 2.0 mph3.2 kmh 29.96 in1014.6 mb 0.01 in0.3 mm 0.00 in0.0 mm 0.09 in2.3 mm
10:30 AM 39.9°F4.4°C 36.9°F2.7°C 89% 5.0 mph NW8.0 kmh NW 6.0 mph9.7 kmh 29.96 in1014.6 mb 0.01 in0.3 mm 0.00 in0.0 mm 0.09 in2.3 mm
10:35 AM 39.8°F4.3°C 36.8°F2.7°C 89% 4.0 mph NNW6.4 kmh NNW 4.0 mph6.4 kmh 29.96 in1014.6 mb 0.01 in0.3 mm 0.00 in0.0 mm 0.09 in2.3 mm
10:40 AM 39.9°F4.4°C 36.6°F2.6°C 88% 1.0 mph NW1.6 kmh NW 2.0 mph3.2 kmh 29.96 in1014.6 mb 0.01 in0.3 mm 0.00 in0.0 mm 0.09 in2.3 mm
10:45 AM 39.9°F4.4°C 36.6°F2.6°C 88% 3.0 mph NNW4.8 kmh NNW 5.0 mph8.0 kmh 29.96 in1014.6 mb 0.01 in0.3 mm 0.00 in0.0 mm 0.09 in2.3 mm
10:50 AM 40.0°F4.4°C 36.7°F2.6°C 88% 5.0 mph NNW8.0 kmh NNW 5.0 mph8.0 kmh 29.96 in1014.6 mb 0.01 in0.3 mm 0.00 in0.0 mm 0.09 in2.3 mm
10:55 AM 40.0°F4.4°C 36.5°F2.5°C 87% 2.0 mph NW3.2 kmh NW 4.0 mph6.4 kmh 29.97 in1014.9 mb 0.01 in0.3 mm 0.00 in0.0 mm 0.09 in2.3 mm
10:59 AM 40.2°F4.6°C 36.9°F2.7°C 88% 6.0 mph NW9.7 kmh NW 6.0 mph9.7 kmh 29.97 in1014.9 mb 0.00 in0.0 mm 0.00 in0.0 mm 0.09 in2.3 mm
11:05 AM 40.4°F4.7°C 37.1°F2.8°C 88% 3.0 mph NW4.8 kmh NW 5.0 mph8.0 kmh 29.97 in1014.9 mb 0.00 in0.0 mm 0.00 in0.0 mm 0.09 in2.3 mm
11:10 AM 40.5°F4.7°C 36.9°F2.7°C 87% 6.0 mph N9.7 kmh N 10.0 mph16.1 kmh 29.97 in1014.9 mb 0.00 in0.0 mm 0.00 in0.0 mm 0.09 in2.3 mm
11:15 AM 40.5°F4.7°C 36.9°F2.7°C 87% 4.0 mph NNW6.4 kmh NNW 4.0 mph6.4 kmh 29.97 in1014.9 mb 0.00 in0.0 mm 0.00 in0.0 mm 0.09 in2.3 mm
11:19 AM 40.7°F4.8°C 36.9°F2.7°C 86% 4.0 mph NW6.4 kmh NW 4.0 mph6.4 kmh 29.97 in1014.9 mb 0.00 in0.0 mm 0.00 in0.0 mm 0.09 in2.3 mm
11:25 AM 41.0°F5.0°C 37.1°F2.8°C 86% 6.0 mph NNW9.7 kmh NNW 6.0 mph9.7 kmh 29.97 in1014.9 mb 0.00 in0.0 mm 0.00 in0.0 mm 0.09 in2.3 mm
11:30 AM 41.3°F5.2°C 37.4°F3.0°C 86% 6.0 mph N9.7 kmh N 6.0 mph9.7 kmh 29.97 in1014.9 mb 0.00 in0.0 mm 0.00 in0.0 mm 0.09 in2.3 mm
11:35 AM 41.5°F5.3°C 37.3°F2.9°C 85% 3.0 mph NNW4.8 kmh NNW 3.0 mph4.8 kmh 29.97 in1014.9 mb 0.00 in0.0 mm 0.00 in0.0 mm 0.09 in2.3 mm
11:40 AM 41.6°F5.3°C 37.4°F3.0°C 85% 2.0 mph NW3.2 kmh NW 6.0 mph9.7 kmh 29.97 in1014.9 mb 0.00 in0.0 mm 0.00 in0.0 mm 0.09 in2.3 mm
11:45 AM 41.4°F5.2°C 37.2°F2.9°C 85% 5.0 mph NW8.0 kmh NW 5.0 mph8.0 kmh 29.97 in1014.9 mb 0.00 in0.0 mm 0.00 in0.0 mm 0.09 in2.3 mm
11:50 AM 41.0°F5.0°C 37.1°F2.8°C 86% 4.0 mph N6.4 kmh N 4.0 mph6.4 kmh 29.98 in1015.2 mb 0.00 in0.0 mm 0.00 in0.0 mm 0.09 in2.3 mm
11:55 AM 40.8°F4.9°C 36.9°F2.7°C 86% 2.0 mph NW3.2 kmh NW 2.0 mph3.2 kmh 29.98 in1015.2 mb 0.00 in0.0 mm 0.00 in0.0 mm 0.09 in2.3 mm
12:00 PM 40.7°F4.8°C 37.1°F2.8°C 87% 1.0 mph NW1.6 kmh NW 3.0 mph4.8 kmh 29.98 in1015.2 mb 0.00 in0.0 mm 0.00 in0.0 mm 0.09 in2.3 mm
12:05 PM 40.5°F4.7°C 36.9°F2.7°C 87% 3.0 mph NW4.8 kmh NW 5.0 mph8.0 kmh 29.98 in1015.2 mb 0.00 in0.0 mm 0.00 in0.0 mm 0.09 in2.3 mm
12:10 PM 40.2°F4.6°C 36.7°F2.6°C 87% 3.0 mph NW4.8 kmh NW 3.0 mph4.8 kmh 29.98 in1015.2 mb 0.01 in0.3 mm 0.12 in3.0 mm 0.10 in2.5 mm
12:14 PM 40.2°F4.6°C 36.9°F2.7°C 88% 6.0 mph NW9.7 kmh NW 6.0 mph9.7 kmh 29.98 in1015.2 mb 0.01 in0.3 mm 0.00 in0.0 mm 0.10 in2.5 mm
12:20 PM 40.1°F4.5°C 36.8°F2.7°C 88% 3.0 mph N4.8 kmh N 8.0 mph12.9 kmh 29.98 in1015.2 mb 0.01 in0.3 mm 0.00 in0.0 mm 0.10 in2.5 mm
12:25 PM 40.0°F4.4°C 36.7°F2.6°C 88% 3.0 mph NW4.8 kmh NW 4.0 mph6.4 kmh 29.98 in1015.2 mb 0.01 in0.3 mm 0.00 in0.0 mm 0.10 in2.5 mm
12:30 PM 40.0°F4.4°C 36.7°F2.6°C 88% 3.0 mph NW4.8 kmh NW 4.0 mph6.4 kmh 29.98 in1015.2 mb 0.01 in0.3 mm 0.00 in0.0 mm 0.10 in2.5 mm
12:35 PM 40.0°F4.4°C 36.7°F2.6°C 88% 2.0 mph NW3.2 kmh NW 3.0 mph4.8 kmh 29.98 in1015.2 mb 0.01 in0.3 mm 0.00 in0.0 mm 0.10 in2.5 mm
12:40 PM 40.0°F4.4°C 37.0°F2.8°C 89% 5.0 mph N8.0 kmh N 8.0 mph12.9 kmh 29.99 in1015.6 mb 0.01 in0.3 mm 0.00 in0.0 mm 0.10 in2.5 mm
12:45 PM 40.0°F4.4°C 36.7°F2.6°C 88% 4.0 mph NW6.4 kmh NW 4.0 mph6.4 kmh 29.99 in1015.6 mb 0.01 in0.3 mm 0.00 in0.0 mm 0.10 in2.5 mm
12:50 PM 40.0°F4.4°C 37.0°F2.8°C 89% 3.0 mph NW4.8 kmh NW 3.0 mph4.8 kmh 29.98 in1015.2 mb 0.01 in0.3 mm 0.00 in0.0 mm 0.10 in2.5 mm
12:55 PM 40.0°F4.4°C 37.0°F2.8°C 89% 4.0 mph NW6.4 kmh NW 5.0 mph8.0 kmh 29.99 in1015.6 mb 0.01 in0.3 mm 0.00 in0.0 mm 0.10 in2.5 mm
01:00 PM 40.0°F4.4°C 37.0°F2.8°C 89% 3.0 mph NW4.8 kmh NW 3.0 mph4.8 kmh 29.99 in1015.6 mb 0.01 in0.3 mm 0.00 in0.0 mm 0.10 in2.5 mm
01:05 PM 40.0°F4.4°C 37.0°F2.8°C 89% 5.0 mph WNW8.0 kmh WNW 5.0 mph8.0 kmh 29.99 in1015.6 mb 0.01 in0.3 mm 0.00 in0.0 mm 0.10 in2.5 mm
01:10 PM 40.0°F4.4°C 37.0°F2.8°C 89% 5.0 mph NW8.0 kmh NW 5.0 mph8.0 kmh 29.99 in1015.6 mb 0.00 in0.0 mm 0.00 in0.0 mm 0.10 in2.5 mm
01:15 PM 40.0°F4.4°C 37.0°F2.8°C 89% 3.0 mph NW4.8 kmh NW 6.0 mph9.7 kmh 29.99 in1015.6 mb 0.00 in0.0 mm 0.00 in0.0 mm 0.10 in2.5 mm
01:20 PM 40.1°F4.5°C 37.1°F2.8°C 89% 2.0 mph NNW3.2 kmh NNW 3.0 mph4.8 kmh 29.99 in1015.6 mb 0.00 in0.0 mm 0.00 in0.0 mm 0.10 in2.5 mm
01:25 PM 40.1°F4.5°C 36.8°F2.7°C 88% 5.0 mph NNW8.0 kmh NNW 5.0 mph8.0 kmh 29.99 in1015.6 mb 0.00 in0.0 mm 0.00 in0.0 mm 0.10 in2.5 mm
01:30 PM 40.0°F4.4°C 36.7°F2.6°C 88% 2.0 mph NNW3.2 kmh NNW 3.0 mph4.8 kmh 29.99 in1015.6 mb 0.00 in0.0 mm 0.00 in0.0 mm 0.10 in2.5 mm
01:35 PM 40.0°F4.4°C 36.7°F2.6°C 88% 4.0 mph NW6.4 kmh NW 4.0 mph6.4 kmh 29.99 in1015.6 mb 0.00 in0.0 mm 0.00 in0.0 mm 0.10 in2.5 mm
01:40 PM 40.0°F4.4°C 36.7°F2.6°C 88% 2.0 mph NW3.2 kmh NW 3.0 mph4.8 kmh 29.99 in1015.6 mb 0.00 in0.0 mm 0.00 in0.0 mm 0.10 in2.5 mm
01:45 PM 40.2°F4.6°C 37.2°F2.9°C 89% 4.0 mph N6.4 kmh N 6.0 mph9.7 kmh 29.99 in1015.6 mb 0.00 in0.0 mm 0.00 in0.0 mm 0.10 in2.5 mm
01:50 PM 40.2°F4.6°C 37.2°F2.9°C 89% 3.0 mph NW4.8 kmh NW 5.0 mph8.0 kmh 29.99 in1015.6 mb 0.00 in0.0 mm 0.00 in0.0 mm 0.10 in2.5 mm
01:54 PM 40.2°F4.6°C 37.2°F2.9°C 89% 3.0 mph NNW4.8 kmh NNW 4.0 mph6.4 kmh 30.00 in1015.9 mb 0.00 in0.0 mm 0.00 in0.0 mm 0.10 in2.5 mm
02:00 PM 40.2°F4.6°C 37.2°F2.9°C 89% 4.0 mph NW6.4 kmh NW 5.0 mph8.0 kmh 30.00 in1015.9 mb 0.00 in0.0 mm 0.00 in0.0 mm 0.10 in2.5 mm
02:05 PM 40.2°F4.6°C 37.2°F2.9°C 89% 5.0 mph NW8.0 kmh NW 5.0 mph8.0 kmh 30.00 in1015.9 mb 0.00 in0.0 mm 0.00 in0.0 mm 0.10 in2.5 mm
02:10 PM 40.2°F4.6°C 37.2°F2.9°C 89% 1.0 mph N1.6 kmh N 3.0 mph4.8 kmh 30.00 in1015.9 mb 0.00 in0.0 mm 0.00 in0.0 mm 0.10 in2.5 mm
02:15 PM 40.2°F4.6°C 37.2°F2.9°C 89% 4.0 mph NNW6.4 kmh NNW 8.0 mph12.9 kmh 30.00 in1015.9 mb 0.00 in0.0 mm 0.00 in0.0 mm 0.10 in2.5 mm
02:20 PM 40.3°F4.6°C 37.3°F2.9°C 89% 8.0 mph NW12.9 kmh NW 8.0 mph12.9 kmh 30.00 in1015.9 mb 0.00 in0.0 mm 0.00 in0.0 mm 0.10 in2.5 mm
02:25 PM 40.3°F4.6°C 37.3°F2.9°C 89% 6.0 mph NNW9.7 kmh NNW 6.0 mph9.7 kmh 29.99 in1015.6 mb 0.01 in0.3 mm 0.12 in3.0 mm 0.11 in2.8 mm
02:30 PM 40.4°F4.7°C 37.4°F3.0°C 89% 5.0 mph N8.0 kmh N 5.0 mph8.0 kmh 30.00 in1015.9 mb 0.01 in0.3 mm 0.00 in0.0 mm 0.11 in2.8 mm
02:35 PM 40.5°F4.7°C 37.5°F3.1°C 89% 3.0 mph N4.8 kmh N 3.0 mph4.8 kmh 29.99 in1015.6 mb 0.01 in0.3 mm 0.00 in0.0 mm 0.11 in2.8 mm
02:40 PM 40.6°F4.8°C 37.6°F3.1°C 89% 4.0 mph NW6.4 kmh NW 4.0 mph6.4 kmh 29.99 in1015.6 mb 0.01 in0.3 mm 0.00 in0.0 mm 0.11 in2.8 mm
02:45 PM 40.8°F4.9°C 37.8°F3.2°C 89% 6.0 mph NW9.7 kmh NW 8.0 mph12.9 kmh 29.99 in1015.6 mb 0.01 in0.3 mm 0.00 in0.0 mm 0.11 in2.8 mm
02:50 PM 40.9°F4.9°C 37.6°F3.1°C 88% 3.0 mph NW4.8 kmh NW 4.0 mph6.4 kmh 29.99 in1015.6 mb 0.01 in0.3 mm 0.00 in0.0 mm 0.11 in2.8 mm
02:55 PM 41.0°F5.0°C 37.7°F3.2°C 88% 2.0 mph NW3.2 kmh NW 3.0 mph4.8 kmh 29.99 in1015.6 mb 0.01 in0.3 mm 0.00 in0.0 mm 0.11 in2.8 mm
03:00 PM 41.1°F5.1°C 37.8°F3.2°C 88% 1.0 mph NNE1.6 kmh NNE 1.0 mph1.6 kmh 29.99 in1015.6 mb 0.01 in0.3 mm 0.00 in0.0 mm 0.11 in2.8 mm
03:04 PM 41.4°F5.2°C 38.1°F3.4°C 88% 3.0 mph N4.8 kmh N 6.0 mph9.7 kmh 29.99 in1015.6 mb 0.01 in0.3 mm 0.00 in0.0 mm 0.11 in2.8 mm
03:10 PM 41.5°F5.3°C 37.9°F3.3°C 87% 4.0 mph NNW6.4 kmh NNW 6.0 mph9.7 kmh 29.99 in1015.6 mb 0.01 in0.3 mm 0.00 in0.0 mm 0.11 in2.8 mm
03:15 PM 41.6°F5.3°C 38.0°F3.3°C 87% Calm Calm 2.0 mph3.2 kmh 29.99 in1015.6 mb 0.01 in0.3 mm 0.00 in0.0 mm 0.11 in2.8 mm
03:20 PM 41.6°F5.3°C 38.0°F3.3°C 87% 3.0 mph NW4.8 kmh NW 3.0 mph4.8 kmh 29.99 in1015.6 mb 0.01 in0.3 mm 0.00 in0.0 mm 0.11 in2.8 mm
03:25 PM 41.7°F5.4°C 38.1°F3.4°C 87% 3.0 mph NNW4.8 kmh NNW 8.0 mph12.9 kmh 29.99 in1015.6 mb 0.00 in0.0 mm 0.00 in0.0 mm 0.11 in2.8 mm
03:30 PM 41.8°F5.4°C 38.2°F3.4°C 87% 4.0 mph NW6.4 kmh NW 4.0 mph6.4 kmh 29.99 in1015.6 mb 0.00 in0.0 mm 0.00 in0.0 mm 0.11 in2.8 mm
03:34 PM 42.1°F5.6°C 38.2°F3.4°C 86% 3.0 mph NNW4.8 kmh NNW 3.0 mph4.8 kmh 29.99 in1015.6 mb 0.00 in0.0 mm 0.00 in0.0 mm 0.11 in2.8 mm
03:40 PM 42.4°F5.8°C 38.2°F3.4°C 85% 5.0 mph NW8.0 kmh NW 5.0 mph8.0 kmh 29.99 in1015.6 mb 0.00 in0.0 mm 0.00 in0.0 mm 0.11 in2.8 mm
03:45 PM 42.4°F5.8°C 37.9°F3.3°C 84% 5.0 mph N8.0 kmh N 5.0 mph8.0 kmh 29.99 in1015.6 mb 0.00 in0.0 mm 0.00 in0.0 mm 0.11 in2.8 mm
03:49 PM 42.5°F5.8°C 38.0°F3.3°C 84% 4.0 mph NNW6.4 kmh NNW 6.0 mph9.7 kmh 29.99 in1015.6 mb 0.00 in0.0 mm 0.00 in0.0 mm 0.11 in2.8 mm
03:54 PM 42.6°F5.9°C 38.1°F3.4°C 84% 6.0 mph NW9.7 kmh NW 6.0 mph9.7 kmh 29.99 in1015.6 mb 0.00 in0.0 mm 0.00 in0.0 mm 0.11 in2.8 mm
04:00 PM 42.9°F6.1°C 38.7°F3.7°C 85% 6.0 mph NNW9.7 kmh NNW 8.0 mph12.9 kmh 29.99 in1015.6 mb 0.00 in0.0 mm 0.00 in0.0 mm 0.11 in2.8 mm
04:05 PM 42.9°F6.1°C 38.4°F3.6°C 84% 5.0 mph NNW8.0 kmh NNW 6.0 mph9.7 kmh 29.99 in1015.6 mb 0.00 in0.0 mm 0.00 in0.0 mm 0.11 in2.8 mm
04:10 PM 43.0°F6.1°C 38.8°F3.8°C 85% 3.0 mph NNW4.8 kmh NNW 3.0 mph4.8 kmh 29.99 in1015.6 mb 0.00 in0.0 mm 0.00 in0.0 mm 0.11 in2.8 mm
04:15 PM 43.1°F6.2°C 38.6°F3.7°C 84% 2.0 mph NNW3.2 kmh NNW 3.0 mph4.8 kmh 29.99 in1015.6 mb 0.00 in0.0 mm 0.00 in0.0 mm 0.11 in2.8 mm
04:20 PM 43.0°F6.1°C 38.8°F3.8°C 85% 4.0 mph NNW6.4 kmh NNW 6.0 mph9.7 kmh 29.99 in1015.6 mb 0.00 in0.0 mm 0.00 in0.0 mm 0.11 in2.8 mm
04:25 PM 43.0°F6.1°C 38.8°F3.8°C 85% 2.0 mph NNW3.2 kmh NNW 4.0 mph6.4 kmh 29.99 in1015.6 mb 0.00 in0.0 mm 0.00 in0.0 mm 0.11 in2.8 mm
04:29 PM 43.0°F6.1°C 38.8°F3.8°C 85% 3.0 mph N4.8 kmh N 4.0 mph6.4 kmh 29.99 in1015.6 mb 0.00 in0.0 mm 0.00 in0.0 mm 0.11 in2.8 mm
04:35 PM 43.1°F6.2°C 38.9°F3.8°C 85% 2.0 mph NW3.2 kmh NW 2.0 mph3.2 kmh 29.99 in1015.6 mb 0.00 in0.0 mm 0.00 in0.0 mm 0.11 in2.8 mm
04:40 PM 43.2°F6.2°C 39.0°F3.9°C 85% 1.0 mph NW1.6 kmh NW 3.0 mph4.8 kmh 30.00 in1015.9 mb 0.00 in0.0 mm 0.00 in0.0 mm 0.11 in2.8 mm
04:45 PM 43.1°F6.2°C 38.9°F3.8°C 85% 3.0 mph W4.8 kmh W 3.0 mph4.8 kmh 30.00 in1015.9 mb 0.00 in0.0 mm 0.00 in0.0 mm 0.11 in2.8 mm
04:50 PM 43.2°F6.2°C 39.0°F3.9°C 85% 4.0 mph NW6.4 kmh NW 4.0 mph6.4 kmh 30.00 in1015.9 mb 0.00 in0.0 mm 0.00 in0.0 mm 0.11 in2.8 mm
04:54 PM 43.1°F6.2°C 38.9°F3.8°C 85% 2.0 mph NW3.2 kmh NW 3.0 mph4.8 kmh 30.00 in1015.9 mb 0.00 in0.0 mm 0.00 in0.0 mm 0.11 in2.8 mm
04:59 PM 43.1°F6.2°C 38.9°F3.8°C 85% 4.0 mph NNW6.4 kmh NNW 4.0 mph6.4 kmh 30.00 in1015.9 mb 0.00 in0.0 mm 0.00 in0.0 mm 0.11 in2.8 mm
05:05 PM 43.1°F6.2°C 38.9°F3.8°C 85% 4.0 mph NW6.4 kmh NW 5.0 mph8.0 kmh 30.00 in1015.9 mb 0.01 in0.3 mm 0.01 in0.3 mm 0.12 in3.0 mm
05:10 PM 43.1°F6.2°C 39.2°F4.0°C 86% 3.0 mph NW4.8 kmh NW 3.0 mph4.8 kmh 30.00 in1015.9 mb 0.01 in0.3 mm 0.00 in0.0 mm 0.12 in3.0 mm
05:15 PM 43.1°F6.2°C 39.2°F4.0°C 86% 2.0 mph WNW3.2 kmh WNW 3.0 mph4.8 kmh 30.00 in1015.9 mb 0.01 in0.3 mm 0.00 in0.0 mm 0.12 in3.0 mm
05:20 PM 43.0°F6.1°C 39.1°F3.9°C 86% 5.0 mph NW8.0 kmh NW 5.0 mph8.0 kmh 30.00 in1015.9 mb 0.01 in0.3 mm 0.00 in0.0 mm 0.12 in3.0 mm
05:25 PM 42.8°F6.0°C 39.2°F4.0°C 87% 1.0 mph NW1.6 kmh NW 2.0 mph3.2 kmh 30.00 in1015.9 mb 0.01 in0.3 mm 0.00 in0.0 mm 0.12 in3.0 mm
05:30 PM 42.7°F5.9°C 39.1°F3.9°C 87% 4.0 mph NW6.4 kmh NW 5.0 mph8.0 kmh 30.00 in1015.9 mb 0.01 in0.3 mm 0.00 in0.0 mm 0.12 in3.0 mm
05:34 PM 42.7°F5.9°C 39.1°F3.9°C 87% 4.0 mph NW6.4 kmh NW 4.0 mph6.4 kmh 30.00 in1015.9 mb 0.01 in0.3 mm 0.00 in0.0 mm 0.12 in3.0 mm
05:40 PM 42.7°F5.9°C 39.4°F4.1°C 88% 1.0 mph NW1.6 kmh NW 3.0 mph4.8 kmh 30.00 in1015.9 mb 0.01 in0.3 mm 0.00 in0.0 mm 0.12 in3.0 mm
05:45 PM 42.7°F5.9°C 39.4°F4.1°C 88% 3.0 mph N4.8 kmh N 3.0 mph4.8 kmh 30.01 in1016.3 mb 0.01 in0.3 mm 0.00 in0.0 mm 0.12 in3.0 mm
05:50 PM 42.7°F5.9°C 39.4°F4.1°C 88% 2.0 mph NW3.2 kmh NW 3.0 mph4.8 kmh 30.01 in1016.3 mb 0.01 in0.3 mm 0.00 in0.0 mm 0.12 in3.0 mm
05:55 PM 42.7°F5.9°C 39.4°F4.1°C 88% 3.0 mph NW4.8 kmh NW 3.0 mph4.8 kmh 30.01 in1016.3 mb 0.01 in0.3 mm 0.00 in0.0 mm 0.12 in3.0 mm
06:00 PM 42.7°F5.9°C 39.4°F4.1°C 88% 5.0 mph NNW8.0 kmh NNW 5.0 mph8.0 kmh 30.01 in1016.3 mb 0.01 in0.3 mm 0.00 in0.0 mm 0.12 in3.0 mm
06:05 PM 42.6°F5.9°C 39.3°F4.1°C 88% 2.0 mph NW3.2 kmh NW 3.0 mph4.8 kmh 30.02 in1016.6 mb 0.00 in0.0 mm 0.00 in0.0 mm 0.12 in3.0 mm
06:10 PM 42.5°F5.8°C 39.5°F4.2°C 89% 1.0 mph NW1.6 kmh NW 1.0 mph1.6 kmh 30.02 in1016.6 mb 0.00 in0.0 mm 0.00 in0.0 mm 0.12 in3.0 mm
06:15 PM 42.4°F5.8°C 39.4°F4.1°C 89% 3.0 mph NW4.8 kmh NW 3.0 mph4.8 kmh 30.02 in1016.6 mb 0.00 in0.0 mm 0.00 in0.0 mm 0.12 in3.0 mm
06:20 PM 42.4°F5.8°C 39.4°F4.1°C 89% 3.0 mph NNW4.8 kmh NNW 3.0 mph4.8 kmh 30.02 in1016.6 mb 0.00 in0.0 mm 0.00 in0.0 mm 0.12 in3.0 mm
06:24 PM 42.5°F5.8°C 39.8°F4.3°C 90% 2.0 mph NW3.2 kmh NW 2.0 mph3.2 kmh 30.02 in1016.6 mb 0.00 in0.0 mm 0.00 in0.0 mm 0.12 in3.0 mm
06:30 PM 42.6°F5.9°C 39.6°F4.2°C 89% Calm Calm 3.0 mph4.8 kmh 30.01 in1016.3 mb 0.00 in0.0 mm 0.00 in0.0 mm 0.12 in3.0 mm
06:35 PM 42.7°F5.9°C 39.7°F4.3°C 89% 2.0 mph WNW3.2 kmh WNW 3.0 mph4.8 kmh 30.01 in1016.3 mb 0.00 in0.0 mm 0.00 in0.0 mm 0.12 in3.0 mm
06:40 PM 42.8°F6.0°C 39.8°F4.3°C 89% Calm Calm -- 30.01 in1016.3 mb 0.00 in0.0 mm 0.00 in0.0 mm 0.12 in3.0 mm
06:45 PM 42.9°F6.1°C 39.9°F4.4°C 89% Calm Calm 1.0 mph1.6 kmh 30.01 in1016.3 mb 0.00 in0.0 mm 0.00 in0.0 mm 0.12 in3.0 mm
06:50 PM 43.0°F6.1°C 40.0°F4.4°C 89% Calm Calm 2.0 mph3.2 kmh 30.02 in1016.6 mb 0.00 in0.0 mm 0.00 in0.0 mm 0.12 in3.0 mm
06:54 PM 43.1°F6.2°C 39.8°F4.3°C 88% 1.0 mph NNW1.6 kmh NNW 1.0 mph1.6 kmh 30.02 in1016.6 mb 0.00 in0.0 mm 0.00 in0.0 mm 0.12 in3.0 mm
07:00 PM 43.1°F6.2°C 39.8°F4.3°C 88% Calm Calm 2.0 mph3.2 kmh 30.02 in1016.6 mb 0.00 in0.0 mm 0.00 in0.0 mm 0.12 in3.0 mm
07:05 PM 43.2°F6.2°C 39.9°F4.4°C 88% Calm Calm -- 30.02 in1016.6 mb 0.00 in0.0 mm 0.00 in0.0 mm 0.12 in3.0 mm
07:10 PM 43.2°F6.2°C 39.9°F4.4°C 88% Calm Calm 1.0 mph1.6 kmh 30.02 in1016.6 mb 0.00 in0.0 mm 0.00 in0.0 mm 0.12 in3.0 mm
07:15 PM 43.2°F6.2°C 39.9°F4.4°C 88% 2.0 mph WNW3.2 kmh WNW 3.0 mph4.8 kmh 30.02 in1016.6 mb 0.00 in0.0 mm 0.00 in0.0 mm 0.12 in3.0 mm
07:20 PM 43.2°F6.2°C 39.6°F4.2°C 87% 2.0 mph WNW3.2 kmh WNW 2.0 mph3.2 kmh 30.02 in1016.6 mb 0.00 in0.0 mm 0.00 in0.0 mm 0.12 in3.0 mm
07:25 PM 43.3°F6.3°C 39.4°F4.1°C 86% Calm Calm 1.0 mph1.6 kmh 30.02 in1016.6 mb 0.00 in0.0 mm 0.00 in0.0 mm 0.12 in3.0 mm
07:30 PM 43.4°F6.3°C 39.2°F4.0°C 85% 5.0 mph NW8.0 kmh NW 5.0 mph8.0 kmh 30.02 in1016.6 mb 0.00 in0.0 mm 0.00 in0.0 mm 0.12 in3.0 mm
07:35 PM 43.5°F6.4°C 38.7°F3.7°C 83% 3.0 mph NNW4.8 kmh NNW 4.0 mph6.4 kmh 30.03 in1016.9 mb 0.00 in0.0 mm 0.00 in0.0 mm 0.12 in3.0 mm
07:40 PM 43.6°F6.4°C 38.5°F3.6°C 82% 3.0 mph WNW4.8 kmh WNW 4.0 mph6.4 kmh 30.03 in1016.9 mb 0.00 in0.0 mm 0.00 in0.0 mm 0.12 in3.0 mm
07:44 PM 43.6°F6.4°C 38.2°F3.4°C 81% 3.0 mph NNW4.8 kmh NNW 5.0 mph8.0 kmh 30.03 in1016.9 mb 0.00 in0.0 mm 0.00 in0.0 mm 0.12 in3.0 mm
07:50 PM 43.6°F6.4°C 37.5°F3.1°C 79% 5.0 mph NW8.0 kmh NW 5.0 mph8.0 kmh 30.02 in1016.6 mb 0.00 in0.0 mm 0.00 in0.0 mm 0.12 in3.0 mm
07:55 PM 43.6°F6.4°C 37.5°F3.1°C 79% 2.0 mph NNW3.2 kmh NNW 3.0 mph4.8 kmh 30.03 in1016.9 mb 0.01 in0.3 mm 0.12 in3.0 mm 0.13 in3.3 mm
08:00 PM 43.6°F6.4°C 37.5°F3.1°C 79% 2.0 mph NW3.2 kmh NW 3.0 mph4.8 kmh 30.03 in1016.9 mb 0.01 in0.3 mm 0.00 in0.0 mm 0.13 in3.3 mm
08:05 PM 43.6°F6.4°C 37.5°F3.1°C 79% 4.0 mph NW6.4 kmh NW 5.0 mph8.0 kmh 30.03 in1016.9 mb 0.01 in0.3 mm 0.00 in0.0 mm 0.13 in3.3 mm
08:10 PM 43.5°F6.4°C 37.8°F3.2°C 80% 4.0 mph NW6.4 kmh NW 4.0 mph6.4 kmh 30.03 in1016.9 mb 0.01 in0.3 mm 0.00 in0.0 mm 0.13 in3.3 mm
08:15 PM 43.3°F6.3°C 37.6°F3.1°C 80% 1.0 mph NNW1.6 kmh NNW 1.0 mph1.6 kmh 30.03 in1016.9 mb 0.01 in0.3 mm 0.00 in0.0 mm 0.13 in3.3 mm
08:19 PM 43.3°F6.3°C 37.6°F3.1°C 80% 2.0 mph NNW3.2 kmh NNW 3.0 mph4.8 kmh 30.03 in1016.9 mb 0.01 in0.3 mm 0.00 in0.0 mm 0.13 in3.3 mm
08:25 PM 43.1°F6.2°C 37.4°F3.0°C 80% 2.0 mph NNW3.2 kmh NNW 3.0 mph4.8 kmh 30.03 in1016.9 mb 0.01 in0.3 mm 0.00 in0.0 mm 0.13 in3.3 mm
08:30 PM 43.0°F6.1°C 37.3°F2.9°C 80% 1.0 mph NW1.6 kmh NW 3.0 mph4.8 kmh 30.03 in1016.9 mb 0.01 in0.3 mm 0.00 in0.0 mm 0.13 in3.3 mm
08:35 PM 42.9°F6.1°C 36.9°F2.7°C 79% 4.0 mph NW6.4 kmh NW 7.0 mph11.3 kmh 30.04 in1017.3 mb 0.01 in0.3 mm 0.00 in0.0 mm 0.13 in3.3 mm
08:40 PM 42.7°F5.9°C 36.3°F2.4°C 78% 2.0 mph NW3.2 kmh NW 4.0 mph6.4 kmh 30.04 in1017.3 mb 0.01 in0.3 mm 0.00 in0.0 mm 0.13 in3.3 mm
08:45 PM 42.7°F5.9°C 36.0°F2.2°C 77% 3.0 mph NNW4.8 kmh NNW 5.0 mph8.0 kmh 30.04 in1017.3 mb 0.01 in0.3 mm 0.00 in0.0 mm 0.13 in3.3 mm
08:50 PM 42.7°F5.9°C 36.0°F2.2°C 77% 3.0 mph NW4.8 kmh NW 4.0 mph6.4 kmh 30.04 in1017.3 mb 0.01 in0.3 mm 0.00 in0.0 mm 0.13 in3.3 mm
08:55 PM 42.7°F5.9°C 36.0°F2.2°C 77% 3.0 mph NNW4.8 kmh NNW 4.0 mph6.4 kmh 30.04 in1017.3 mb 0.00 in0.0 mm 0.00 in0.0 mm 0.13 in3.3 mm
09:00 PM 42.6°F5.9°C 35.9°F2.2°C 77% 1.0 mph NNW1.6 kmh NNW 2.0 mph3.2 kmh 30.04 in1017.3 mb 0.00 in0.0 mm 0.00 in0.0 mm 0.13 in3.3 mm
09:05 PM 42.6°F5.9°C 35.9°F2.2°C 77% Calm Calm -- 30.04 in1017.3 mb 0.00 in0.0 mm 0.00 in0.0 mm 0.13 in3.3 mm
09:10 PM 42.5°F5.8°C 35.8°F2.1°C 77% Calm Calm -- 30.04 in1017.3 mb 0.00 in0.0 mm 0.00 in0.0 mm 0.13 in3.3 mm
09:15 PM 42.5°F5.8°C 36.1°F2.3°C 78% Calm Calm -- 30.04 in1017.3 mb 0.00 in0.0 mm 0.00 in0.0 mm 0.13 in3.3 mm
09:20 PM 42.4°F5.8°C 36.0°F2.2°C 78% Calm Calm -- 30.04 in1017.3 mb 0.00 in0.0 mm 0.00 in0.0 mm 0.13 in3.3 mm
09:25 PM 42.3°F5.7°C 35.9°F2.2°C 78% Calm Calm -- 30.04 in1017.3 mb 0.00 in0.0 mm 0.00 in0.0 mm 0.13 in3.3 mm
09:30 PM 42.3°F5.7°C 35.9°F2.2°C 78% 1.0 mph NW1.6 kmh NW 2.0 mph3.2 kmh 30.04 in1017.3 mb 0.00 in0.0 mm 0.00 in0.0 mm 0.13 in3.3 mm
09:35 PM 42.3°F5.7°C 36.3°F2.4°C 79% Calm Calm -- 30.04 in1017.3 mb 0.00 in0.0 mm 0.00 in0.0 mm 0.13 in3.3 mm
09:40 PM 42.2°F5.7°C 36.2°F2.3°C 79% 2.0 mph NW3.2 kmh NW 2.0 mph3.2 kmh 30.04 in1017.3 mb 0.00 in0.0 mm 0.00 in0.0 mm 0.13 in3.3 mm
09:45 PM 42.2°F5.7°C 36.2°F2.3°C 79% Calm Calm -- 30.04 in1017.3 mb 0.00 in0.0 mm 0.00 in0.0 mm 0.13 in3.3 mm
09:50 PM 42.2°F5.7°C 36.5°F2.5°C 80% Calm Calm -- 30.04 in1017.3 mb 0.00 in0.0 mm 0.00 in0.0 mm 0.13 in3.3 mm
09:55 PM 42.1°F5.6°C 36.4°F2.4°C 80% Calm Calm -- 30.05 in1017.6 mb 0.00 in0.0 mm 0.00 in0.0 mm 0.13 in3.3 mm
10:00 PM 42.1°F5.6°C 36.4°F2.4°C 80% Calm Calm -- 30.05 in1017.6 mb 0.00 in0.0 mm 0.00 in0.0 mm 0.13 in3.3 mm
10:05 PM 42.1°F5.6°C 36.7°F2.6°C 81% Calm Calm -- 30.05 in1017.6 mb 0.00 in0.0 mm 0.00 in0.0 mm 0.13 in3.3 mm
10:10 PM 42.1°F5.6°C 36.7°F2.6°C 81% 1.0 mph NW1.6 kmh NW 2.0 mph3.2 kmh 30.05 in1017.6 mb 0.00 in0.0 mm 0.00 in0.0 mm 0.13 in3.3 mm
10:15 PM 42.0°F5.6°C 36.6°F2.6°C 81% Calm Calm -- 30.05 in1017.6 mb 0.00 in0.0 mm 0.00 in0.0 mm 0.13 in3.3 mm
10:20 PM 42.0°F5.6°C 36.9°F2.7°C 82% Calm Calm -- 30.05 in1017.6 mb 0.00 in0.0 mm 0.00 in0.0 mm 0.13 in3.3 mm
10:24 PM 42.0°F5.6°C 36.9°F2.7°C 82% Calm Calm -- 30.05 in1017.6 mb 0.00 in0.0 mm 0.00 in0.0 mm 0.13 in3.3 mm
10:29 PM 42.0°F5.6°C 36.9°F2.7°C 82% 3.0 mph NW4.8 kmh NW 3.0 mph4.8 kmh 30.05 in1017.6 mb 0.00 in0.0 mm 0.00 in0.0 mm 0.13 in3.3 mm
10:35 PM 42.0°F5.6°C 36.9°F2.7°C 82% 2.0 mph NW3.2 kmh NW 2.0 mph3.2 kmh 30.05 in1017.6 mb 0.00 in0.0 mm 0.00 in0.0 mm 0.13 in3.3 mm
10:40 PM 42.0°F5.6°C 36.9°F2.7°C 82% Calm Calm 1.0 mph1.6 kmh 30.05 in1017.6 mb 0.00 in0.0 mm 0.00 in0.0 mm 0.13 in3.3 mm
10:45 PM 42.0°F5.6°C 36.9°F2.7°C 82% Calm Calm -- 30.05 in1017.6 mb 0.00 in0.0 mm 0.00 in0.0 mm 0.13 in3.3 mm
10:50 PM 42.0°F5.6°C 36.9°F2.7°C 82% 1.0 mph W1.6 kmh W 1.0 mph1.6 kmh 30.05 in1017.6 mb 0.00 in0.0 mm 0.00 in0.0 mm 0.13 in3.3 mm
10:55 PM 42.0°F5.6°C 36.9°F2.7°C 82% 2.0 mph WSW3.2 kmh WSW 2.0 mph3.2 kmh 30.05 in1017.6 mb 0.00 in0.0 mm 0.00 in0.0 mm 0.13 in3.3 mm
11:00 PM 42.1°F5.6°C 37.0°F2.8°C 82% 4.0 mph WSW6.4 kmh WSW 6.0 mph9.7 kmh 30.05 in1017.6 mb 0.00 in0.0 mm 0.00 in0.0 mm 0.13 in3.3 mm
11:05 PM 42.0°F5.6°C 36.9°F2.7°C 82% Calm Calm 3.0 mph4.8 kmh 30.05 in1017.6 mb 0.00 in0.0 mm 0.00 in0.0 mm 0.13 in3.3 mm
11:10 PM 42.0°F5.6°C 37.2°F2.9°C 83% 1.0 mph W1.6 kmh W 2.0 mph3.2 kmh 30.05 in1017.6 mb 0.00 in0.0 mm 0.00 in0.0 mm 0.13 in3.3 mm
11:15 PM 42.0°F5.6°C 37.2°F2.9°C 83% 1.0 mph W1.6 kmh W 2.0 mph3.2 kmh 30.05 in1017.6 mb 0.00 in0.0 mm 0.00 in0.0 mm 0.13 in3.3 mm
11:19 PM 42.0°F5.6°C 37.2°F2.9°C 83% 3.0 mph WSW4.8 kmh WSW 3.0 mph4.8 kmh 30.05 in1017.6 mb 0.00 in0.0 mm 0.00 in0.0 mm 0.13 in3.3 mm
11:25 PM 42.0°F5.6°C 37.2°F2.9°C 83% Calm Calm 2.0 mph3.2 kmh 30.05 in1017.6 mb 0.00 in0.0 mm 0.00 in0.0 mm 0.13 in3.3 mm
11:30 PM 42.0°F5.6°C 37.2°F2.9°C 83% 2.0 mph SW3.2 kmh SW 5.0 mph8.0 kmh 30.05 in1017.6 mb 0.01 in0.3 mm 0.12 in3.0 mm 0.14 in3.6 mm
11:35 PM 42.1°F5.6°C 37.3°F2.9°C 83% Calm Calm 2.0 mph3.2 kmh 30.06 in1017.9 mb 0.01 in0.3 mm 0.00 in0.0 mm 0.14 in3.6 mm
11:40 PM 42.1°F5.6°C 37.0°F2.8°C 82% 4.0 mph W6.4 kmh W 4.0 mph6.4 kmh 30.05 in1017.6 mb 0.01 in0.3 mm 0.00 in0.0 mm 0.14 in3.6 mm
11:45 PM 42.1°F5.6°C 37.0°F2.8°C 82% 2.0 mph W3.2 kmh W 2.0 mph3.2 kmh 30.05 in1017.6 mb 0.01 in0.3 mm 0.00 in0.0 mm 0.14 in3.6 mm
11:50 PM 42.1°F5.6°C 37.0°F2.8°C 82% Calm Calm 1.0 mph1.6 kmh 30.05 in1017.6 mb 0.01 in0.3 mm 0.00 in0.0 mm 0.14 in3.6 mm
11:55 PM 41.9°F5.5°C 36.5°F2.5°C 81% Calm Calm -- 30.05 in1017.6 mb 0.01 in0.3 mm 0.00 in0.0 mm 0.14 in3.6 mm